KDBQ/DBQ METAR and TAF weather

Enter ICAO airport designator
Station Type Date Time Source
KDBQ METAR 2019/06/16 12:42 UTC NOAA

KDBQ 161242Z 03008KT 3SM BR OVC002 14/13 A2983 RMK AO2 T01390128 $


Station Type Date Time Source
KDBQ Decoded METAR 2019/06/16 12:42 UTC NOAA

DUBUQUE REGIONAL AIRPORT, IA, United States (KDBQ) 42-24N 90-42W 326M
Jun 16, 2019 - 08:42 AM EDT / 2019.06.16 1242 UTC
Wind: from the NNE (030 degrees) at 9 MPH (8 KT):0
Visibility: 3 mile(s):0
Sky conditions: overcast
Weather: mist
Temperature: 57.0 F (13.9 C)
Dew Point: 55.0 F (12.8 C)
Relative Humidity: 93%
Pressure (altimeter): 29.83 in. Hg (1010 hPa)
ob: KDBQ 161242Z 03008KT 3SM BR OVC002 14/13 A2983 RMK AO2 T01390128
cycle: 12

Station Type Date Time Source
KDBQ TAF 2019/06/16 12:52 UTC NOAA

TAF
AMD KDBQ 161149Z 1612/1712 02009KT 5SM BR OVC004
TEMPO 1612/1613 2SM BR
FM161400 02008KT P6SM OVC007
FM161600 03008KT P6SM BKN015
FM161900 04006KT P6SM BKN030
FM170000 05007KT P6SM SCT040

Example: see airport list